createdAt,value
2023-05-05T00:01:13.812Z,101423.19
2023-05-05T00:03:42.789Z,101450.88
2023-05-05T00:06:30.052Z,101449.19
2023-05-05T00:09:10.713Z,101423.72
2023-05-05T00:11:37.546Z,101427.25
2023-05-05T00:14:25.045Z,101434.84
2023-05-05T00:17:26.035Z,101451.53
2023-05-05T00:20:07.869Z,101419.69
2023-05-05T00:22:55.060Z,101448.66
2023-05-05T00:25:35.723Z,101423.63
2023-05-05T00:28:02.630Z,101450.06
2023-05-05T00:30:29.871Z,101413.19
2023-05-05T00:32:57.423Z,101414.94
2023-05-05T00:35:24.546Z,101456.06
2023-05-05T00:37:51.502Z,101402.47
2023-05-05T00:40:38.047Z,101469.72
2023-05-05T00:43:18.731Z,101479.13
2023-05-05T00:45:47.892Z,101482.44
2023-05-05T00:48:17.146Z,101402.09
2023-05-05T00:50:45.158Z,101400.97
2023-05-05T00:53:12.577Z,101464.75
2023-05-05T00:55:40.547Z,101404.03
2023-05-05T00:58:08.038Z,101456.16
2023-05-05T01:00:35.188Z,101443.50
2023-05-05T01:03:02.273Z,101476.75
2023-05-05T01:06:27.103Z,101468.94
2023-05-05T01:09:10.698Z,101463.97
2023-05-05T01:11:56.509Z,101456.69
2023-05-05T01:14:32.135Z,101451.16
2023-05-05T01:17:00.168Z,101470.44
2023-05-05T01:19:52.497Z,101467.69
2023-05-05T01:22:55.098Z,101472.09
2023-05-05T01:26:26.100Z,101441.78
2023-05-05T01:29:32.735Z,101399.03
2023-05-05T01:32:14.979Z,101432.00
2023-05-05T01:35:02.188Z,101467.25
2023-05-05T01:37:55.111Z,101471.41
2023-05-05T01:40:43.755Z,101407.66
2023-05-05T01:43:13.612Z,101425.56
2023-05-05T01:45:43.271Z,101462.63
2023-05-05T01:48:12.670Z,101469.66
2023-05-05T01:50:44.119Z,101427.13
2023-05-05T01:53:12.942Z,101459.56
2023-05-05T01:55:41.019Z,101460.38
2023-05-05T01:58:09.860Z,101374.06
2023-05-05T02:00:38.690Z,101427.56
2023-05-05T02:03:07.983Z,101434.19
2023-05-05T02:05:57.126Z,101418.75
2023-05-05T02:08:39.494Z,101373.34
2023-05-05T02:11:09.453Z,101403.59
2023-05-05T02:13:40.824Z,101468.59
2023-05-05T02:16:14.126Z,101465.97
2023-05-05T02:18:43.132Z,101466.53
2023-05-05T02:21:30.147Z,101425.09
2023-05-05T02:24:12.796Z,101435.00
2023-05-05T02:26:40.711Z,101467.34
2023-05-05T02:29:16.628Z,101429.25
2023-05-05T02:31:55.566Z,101356.53
2023-05-05T02:34:51.128Z,101433.16
2023-05-05T02:37:54.168Z,101452.09
2023-05-05T02:40:39.317Z,101352.75
2023-05-05T02:43:09.952Z,101461.47
2023-05-05T02:45:37.143Z,101415.06
2023-05-05T02:48:04.657Z,101453.13
2023-05-05T02:50:35.303Z,101418.94
2023-05-05T02:53:13.804Z,101424.69
2023-05-05T02:55:52.035Z,101407.44
2023-05-05T02:58:37.238Z,101452.19
2023-05-05T03:01:11.933Z,101449.47
2023-05-05T03:03:44.870Z,101448.97
2023-05-05T03:06:36.166Z,101426.72
2023-05-05T03:09:26.471Z,101444.66
2023-05-05T03:12:11.158Z,101404.31
2023-05-05T03:14:51.946Z,101435.28
2023-05-05T03:17:21.706Z,101423.47
2023-05-05T03:19:50.377Z,101364.34
2023-05-05T03:22:37.215Z,101352.72
2023-05-05T03:25:19.725Z,101410.44
2023-05-05T03:27:47.774Z,101426.50
2023-05-05T03:30:20.299Z,101432.88
2023-05-05T03:32:50.836Z,101338.38
2023-05-05T03:35:17.997Z,101375.63
2023-05-05T03:37:45.128Z,101408.03
2023-05-05T03:40:14.813Z,101364.28
2023-05-05T03:42:41.965Z,101396.78
2023-05-05T03:45:09.298Z,101394.97
2023-05-05T03:47:37.532Z,101361.22
2023-05-05T03:50:06.887Z,101404.97
2023-05-05T03:52:34.034Z,101395.22
2023-05-05T03:55:01.505Z,101406.81
2023-05-05T03:57:49.193Z,101376.66
2023-05-05T04:01:02.360Z,101378.56
2023-05-05T04:04:03.242Z,101353.63
2023-05-05T04:07:04.228Z,101412.00
2023-05-05T04:09:45.502Z,101381.38
2023-05-05T04:12:13.665Z,101419.44
2023-05-05T04:14:40.973Z,101376.66
2023-05-05T04:17:09.207Z,101323.75
2023-05-05T04:19:36.411Z,101423.72
2023-05-05T04:22:24.201Z,101385.31
2023-05-05T04:25:05.097Z,101431.78
2023-05-05T04:27:32.840Z,101414.88
2023-05-05T04:30:00.824Z,101367.56
2023-05-05T04:32:28.091Z,101382.69
2023-05-05T04:34:56.004Z,101370.81
2023-05-05T04:37:23.514Z,101393.31
2023-05-05T04:39:50.673Z,101390.63
2023-05-05T04:42:18.447Z,101369.25
2023-05-05T04:44:45.361Z,101409.06
2023-05-05T04:47:14.591Z,101407.13
2023-05-05T04:49:42.436Z,101421.13
2023-05-05T04:52:09.354Z,101366.53
2023-05-05T04:54:57.213Z,101440.91
2023-05-05T04:57:37.900Z,101338.22
2023-05-05T05:00:05.683Z,101402.75
2023-05-05T05:02:33.153Z,101362.53
2023-05-05T05:05:00.192Z,101418.09
2023-05-05T05:07:47.310Z,101400.88
2023-05-05T05:10:49.297Z,101277.22
2023-05-05T05:13:51.319Z,101449.00
2023-05-05T05:16:52.348Z,101451.84
2023-05-05T05:19:32.960Z,101448.00
2023-05-05T05:22:20.286Z,101437.78
2023-05-05T05:25:00.824Z,101462.03
2023-05-05T05:27:28.490Z,101446.72
2023-05-05T05:29:56.148Z,101487.88
2023-05-05T05:32:44.305Z,101475.53
2023-05-05T05:35:45.305Z,101482.25
2023-05-05T05:38:26.904Z,101469.13
2023-05-05T05:40:57.178Z,101430.16
2023-05-05T05:43:25.038Z,101462.97
2023-05-05T05:45:52.066Z,101461.19
2023-05-05T05:48:21.508Z,101454.06
2023-05-05T05:50:48.510Z,101461.94
2023-05-05T05:53:15.458Z,101474.47
2023-05-05T05:55:42.524Z,101487.75
2023-05-05T05:58:09.589Z,101495.69
2023-05-05T06:00:36.634Z,101403.31
2023-05-05T06:03:08.176Z,101492.91
2023-05-05T06:06:01.276Z,101466.75
2023-05-05T06:09:02.282Z,101493.94
2023-05-05T06:11:48.755Z,101472.19
2023-05-05T06:14:18.016Z,101488.00
2023-05-05T06:16:45.395Z,101502.19
2023-05-05T06:19:16.528Z,101434.38
2023-05-05T06:22:04.388Z,101503.22
2023-05-05T06:24:45.667Z,101477.69
2023-05-05T06:27:12.691Z,101448.72
2023-05-05T06:29:39.639Z,101506.00
2023-05-05T06:32:08.469Z,101407.69
2023-05-05T06:34:55.298Z,101491.91
2023-05-05T06:37:35.989Z,101493.63
2023-05-05T06:40:23.308Z,101510.63
2023-05-05T06:43:24.339Z,101485.47
2023-05-05T06:46:27.294Z,101468.16
2023-05-05T06:49:07.827Z,101441.22
2023-05-05T06:51:55.293Z,101476.72
2023-05-05T06:54:35.948Z,101478.94
2023-05-05T06:57:23.342Z,101478.53
2023-05-05T07:00:06.125Z,101510.84
2023-05-05T07:02:33.889Z,101445.13
2023-05-05T07:05:01.378Z,101497.53
2023-05-05T07:07:55.321Z,101456.59
2023-05-05T07:10:35.852Z,101469.13
2023-05-05T07:13:16.424Z,101502.88
2023-05-05T07:16:17.356Z,101512.97
2023-05-05T07:18:58.285Z,101453.91
2023-05-05T07:21:47.331Z,101520.69
2023-05-05T07:24:27.983Z,101510.75
2023-05-05T07:26:54.981Z,101456.75
2023-05-05T07:29:21.890Z,101302.31
2023-05-05T07:32:09.368Z,101436.25
2023-05-05T07:35:10.380Z,101472.53
2023-05-05T07:37:51.467Z,101450.53
2023-05-05T07:40:38.320Z,101506.38
2023-05-05T07:43:39.600Z,101511.44
2023-05-05T07:46:40.343Z,101454.59
2023-05-05T07:49:29.188Z,101504.44
2023-05-05T07:52:16.385Z,101452.88
2023-05-05T07:54:56.861Z,101480.97
2023-05-05T07:57:23.815Z,101494.00
2023-05-05T07:59:50.874Z,101462.00
2023-05-05T08:02:17.999Z,101435.66
2023-05-05T08:04:44.980Z,101453.84
2023-05-05T08:07:11.927Z,101428.63
2023-05-05T08:09:38.916Z,101482.09
2023-05-05T08:12:06.003Z,101462.66
2023-05-05T08:14:33.143Z,101396.47
2023-05-05T08:17:00.054Z,101485.53
2023-05-05T08:19:29.519Z,101421.25
2023-05-05T08:22:17.384Z,101410.38
2023-05-05T08:25:18.345Z,101454.63
2023-05-05T08:27:58.910Z,101479.19
2023-05-05T08:30:28.186Z,101424.03
2023-05-05T08:33:15.411Z,101435.47
2023-05-05T08:35:57.019Z,101405.47
2023-05-05T08:38:24.007Z,101501.06
2023-05-05T08:40:51.601Z,101468.81
2023-05-05T08:43:38.451Z,101447.00
2023-05-05T08:46:18.970Z,101475.94
2023-05-05T08:48:48.901Z,101485.25
2023-05-05T08:51:40.419Z,101488.22
2023-05-05T08:54:27.279Z,101488.06
2023-05-05T08:56:59.956Z,101482.09
2023-05-05T08:59:30.234Z,101458.53
2023-05-05T09:02:01.734Z,101485.59
2023-05-05T09:04:28.873Z,101432.91
2023-05-05T09:06:58.601Z,101370.34
2023-05-05T09:09:27.286Z,101480.47
2023-05-05T09:11:56.032Z,101476.75
2023-05-05T09:14:22.945Z,101457.91
2023-05-05T09:16:49.815Z,101420.31
2023-05-05T09:19:16.778Z,101486.41
2023-05-05T09:22:03.552Z,101478.34
2023-05-05T09:24:55.315Z,101432.72
2023-05-05T09:27:23.547Z,101428.84
2023-05-05T09:29:50.943Z,101440.00
2023-05-05T09:32:18.505Z,101454.16
2023-05-05T09:35:15.401Z,101463.06
2023-05-05T09:38:25.443Z,101448.97
2023-05-05T09:41:37.751Z,101417.88
2023-05-05T09:44:59.930Z,101448.03
2023-05-05T09:48:01.532Z,101448.09
2023-05-05T09:50:45.238Z,101422.81
2023-05-05T09:53:12.319Z,101431.19
2023-05-05T09:55:39.294Z,101429.28
2023-05-05T09:58:19.630Z,101432.91
2023-05-05T10:00:47.546Z,101423.75
2023-05-05T10:03:14.506Z,101437.09
2023-05-05T10:06:11.425Z,101440.41
2023-05-05T10:09:01.800Z,101442.16
2023-05-05T10:11:28.730Z,101424.34
2023-05-05T10:13:56.342Z,101386.44
2023-05-05T10:16:24.677Z,101374.09
2023-05-05T10:18:52.187Z,101346.75
2023-05-05T10:21:41.418Z,101429.03
2023-05-05T10:24:34.466Z,101427.34
2023-05-05T10:27:05.469Z,101420.28
2023-05-05T10:29:46.136Z,101393.81
2023-05-05T10:35:39.832Z,101365.38
2023-05-05T10:38:09.849Z,101411.25
2023-05-05T10:40:36.859Z,101376.22
2023-05-05T10:43:17.565Z,101380.81
2023-05-05T10:46:11.517Z,101384.47
2023-05-05T10:49:13.346Z,101367.09
2023-05-05T10:52:24.457Z,101367.25
2023-05-05T10:55:55.441Z,101377.78
2023-05-05T10:58:47.048Z,101377.94
2023-05-05T11:01:34.309Z,101365.91
2023-05-05T11:04:22.221Z,101293.69
2023-05-05T11:07:14.647Z,101358.47
2023-05-05T11:10:04.323Z,101366.16
2023-05-05T11:12:33.053Z,101293.41
2023-05-05T11:15:28.213Z,101345.78
2023-05-05T11:18:15.499Z,101265.69
2023-05-05T11:21:23.562Z,101333.66
2023-05-05T11:24:31.295Z,101328.34
2023-05-05T11:26:58.137Z,101271.75
2023-05-05T11:29:25.424Z,101330.91
2023-05-05T11:32:12.546Z,101287.06
2023-05-05T11:35:03.479Z,101296.97
2023-05-05T11:37:43.985Z,101318.22
2023-05-05T11:40:24.133Z,101246.47
2023-05-05T11:43:20.549Z,101297.50
2023-05-05T11:46:30.482Z,101304.06
2023-05-05T11:48:57.407Z,101281.69
2023-05-05T11:51:24.648Z,101284.31
2023-05-05T11:54:11.483Z,101305.34
2023-05-05T11:57:15.530Z,101273.84
2023-05-05T11:59:58.430Z,101300.94
2023-05-05T12:02:27.867Z,101288.00
2023-05-05T12:04:56.352Z,101250.69
2023-05-05T12:07:26.162Z,101276.50
2023-05-05T12:09:53.623Z,101296.31
2023-05-05T12:12:33.124Z,101297.38
2023-05-05T12:15:00.518Z,101231.00
2023-05-05T12:17:54.602Z,101262.88
2023-05-05T12:20:55.703Z,101265.75
2023-05-05T12:23:45.000Z,101250.72
2023-05-05T12:26:29.556Z,101264.75
2023-05-05T12:29:01.165Z,101275.94
2023-05-05T12:31:39.378Z,101198.16
2023-05-05T12:34:26.595Z,101235.34
2023-05-05T12:37:28.554Z,101250.94
2023-05-05T12:41:02.576Z,101264.00
2023-05-05T12:43:43.214Z,101254.72
2023-05-05T12:46:30.971Z,101238.53
2023-05-05T12:49:31.557Z,101254.31
2023-05-05T12:52:32.582Z,101261.22
2023-05-05T12:55:33.611Z,101240.66
2023-05-05T12:58:38.576Z,101176.13
2023-05-05T13:01:20.046Z,101212.34
2023-05-05T13:03:47.163Z,101179.91
2023-05-05T13:06:21.806Z,101242.72
2023-05-05T13:08:49.415Z,101239.19
2023-05-05T13:11:16.710Z,101229.19
2023-05-05T13:13:43.931Z,101180.81
2023-05-05T13:16:11.046Z,101198.34
2023-05-05T13:18:46.288Z,101176.66
2023-05-05T13:21:35.873Z,101172.59
2023-05-05T13:24:25.927Z,101186.97
2023-05-05T13:26:58.970Z,101176.63
2023-05-05T13:29:31.387Z,101206.56
2023-05-05T13:31:58.833Z,101187.72
2023-05-05T13:34:45.617Z,101123.69
2023-05-05T13:37:39.553Z,101179.25
2023-05-05T13:40:40.718Z,101172.28
2023-05-05T13:43:41.574Z,101111.59
2023-05-05T13:46:22.333Z,101148.59
2023-05-05T13:49:09.592Z,101164.41
2023-05-05T13:52:03.730Z,101168.75
2023-05-05T13:54:57.585Z,101170.41
2023-05-05T13:57:38.371Z,101158.25
2023-05-05T14:00:25.633Z,101163.69
2023-05-05T14:03:26.613Z,101144.53
2023-05-05T14:06:09.193Z,101132.63
2023-05-05T14:08:36.536Z,101125.16
2023-05-05T14:11:03.812Z,101102.47
2023-05-05T14:13:31.201Z,101153.53
2023-05-05T14:15:58.531Z,101138.63
2023-05-05T14:18:25.974Z,101125.28
2023-05-05T14:21:12.622Z,101108.31
2023-05-05T14:23:53.215Z,101143.69
2023-05-05T14:26:20.113Z,101052.31
2023-05-05T14:28:49.596Z,101132.34
2023-05-05T14:31:17.818Z,101136.00
2023-05-05T14:34:04.614Z,101102.28
2023-05-05T14:36:45.330Z,101108.06
2023-05-05T14:39:12.279Z,101094.47
2023-05-05T14:41:39.215Z,101067.66
2023-05-05T14:44:06.154Z,101071.88
2023-05-05T14:46:53.712Z,101066.38
2023-05-05T14:49:54.655Z,101134.69
2023-05-05T14:52:42.059Z,101089.31
2023-05-05T14:55:28.638Z,101134.09
2023-05-05T14:58:30.657Z,101100.06
2023-05-05T15:01:34.736Z,101111.75
2023-05-05T15:04:35.646Z,101107.88
2023-05-05T15:07:30.304Z,101068.44
2023-05-05T15:10:18.681Z,101075.13
2023-05-05T15:13:01.199Z,101074.44
2023-05-05T15:15:28.233Z,101106.03
2023-05-05T15:17:55.273Z,101101.84
2023-05-05T15:20:42.654Z,101103.78
2023-05-05T15:23:27.942Z,101110.75
2023-05-05T15:25:54.889Z,101054.88
2023-05-05T15:28:21.798Z,101099.31
2023-05-05T15:30:48.721Z,101082.94
2023-05-05T15:33:16.573Z,101116.47
2023-05-05T15:35:43.650Z,101100.50
2023-05-05T15:38:10.731Z,101085.19
2023-05-05T15:40:37.628Z,101076.41
2023-05-05T15:43:24.652Z,101073.16
2023-05-05T15:46:05.230Z,101045.91
2023-05-05T15:48:32.060Z,101092.41
2023-05-05T15:50:59.083Z,101075.44
2023-05-05T15:53:26.880Z,101057.97
2023-05-05T15:56:13.714Z,101055.34
2023-05-05T15:59:14.733Z,101091.03
2023-05-05T16:02:15.748Z,101076.84
2023-05-05T16:05:16.989Z,101089.81
2023-05-05T16:08:10.989Z,101082.53
2023-05-05T16:11:04.702Z,101085.53
2023-05-05T16:13:45.678Z,101052.59
2023-05-05T16:16:12.588Z,101055.91
2023-05-05T16:18:59.691Z,101043.94
2023-05-05T16:22:00.674Z,101046.38
2023-05-05T16:24:43.660Z,101072.94
2023-05-05T16:27:11.360Z,101014.53
2023-05-05T16:29:38.605Z,101024.75
2023-05-05T16:32:18.691Z,101079.84
2023-05-05T16:34:59.272Z,101072.72
2023-05-05T16:37:26.168Z,101054.34
2023-05-05T16:39:53.025Z,101042.91
2023-05-05T16:42:20.332Z,101057.00
2023-05-05T16:44:47.228Z,100974.25
2023-05-05T16:47:14.212Z,101056.34
2023-05-05T16:49:41.198Z,100968.56
2023-05-05T16:52:08.216Z,101006.41
2023-05-05T16:54:35.073Z,101062.34
2023-05-05T16:57:03.836Z,101029.78
2023-05-05T16:59:50.714Z,101002.34
2023-05-05T17:02:51.811Z,101051.16
2023-05-05T17:05:52.811Z,101058.44
2023-05-05T17:08:46.862Z,101005.44
2023-05-05T17:11:27.329Z,101028.63
2023-05-05T17:13:54.337Z,101045.41
2023-05-05T17:16:21.318Z,101024.75
2023-05-05T17:19:08.736Z,101019.31
2023-05-05T17:22:09.781Z,101026.06
2023-05-05T17:25:03.881Z,101034.88
2023-05-05T17:27:50.792Z,100996.16
2023-05-05T17:30:42.523Z,101010.22
2023-05-05T17:33:09.574Z,101020.34
2023-05-05T17:35:38.934Z,101030.09
2023-05-05T17:38:06.051Z,101027.34
2023-05-05T17:40:33.221Z,100962.44
2023-05-05T17:43:00.384Z,100952.66
2023-05-05T17:45:28.622Z,100989.00
2023-05-05T17:47:55.982Z,100979.31
2023-05-05T17:50:23.104Z,100976.28
2023-05-05T17:52:50.049Z,101057.97
2023-05-05T17:55:29.791Z,101005.91
2023-05-05T17:58:25.367Z,101028.75
2023-05-05T18:00:52.289Z,101031.53
2023-05-05T18:03:19.616Z,100941.56
2023-05-05T18:06:06.748Z,101006.97
2023-05-05T18:09:09.170Z,101004.41
2023-05-05T18:11:54.277Z,101039.88
2023-05-05T18:14:22.681Z,100991.22
2023-05-05T18:16:52.909Z,101005.75
2023-05-05T18:19:39.862Z,101006.69
2023-05-05T18:22:33.878Z,101006.13
2023-05-05T18:25:14.505Z,100985.91
2023-05-05T18:28:01.816Z,100996.63
2023-05-05T18:30:43.278Z,101006.50
2023-05-05T18:33:30.863Z,101054.19
2023-05-05T18:36:11.435Z,101056.09
2023-05-05T18:38:58.980Z,101036.75
2023-05-05T18:41:39.817Z,101007.69
2023-05-05T18:44:07.040Z,101043.09
2023-05-05T18:46:34.091Z,100968.09
2023-05-05T18:49:01.068Z,100976.97
2023-05-05T18:51:28.800Z,101022.06
2023-05-05T18:53:55.896Z,101066.31
2023-05-05T18:56:42.805Z,101038.06
2023-05-05T18:59:24.003Z,101052.19
2023-05-05T19:01:51.448Z,101067.28
2023-05-05T19:04:30.132Z,101009.06
2023-05-05T19:07:31.382Z,101055.91
2023-05-05T19:10:35.816Z,101055.09
2023-05-05T19:16:17.807Z,101039.22
2023-05-05T19:18:44.915Z,101084.31
2023-05-05T19:21:31.855Z,101061.41
2023-05-05T19:24:32.812Z,101054.28
2023-05-05T19:27:33.830Z,101073.78
2023-05-05T19:30:14.509Z,101055.25
2023-05-05T19:33:01.836Z,101082.69
2023-05-05T19:36:02.858Z,101103.03
2023-05-05T19:38:44.587Z,101088.09
2023-05-05T19:41:12.106Z,101021.78
2023-05-05T19:43:59.802Z,101127.06
2023-05-05T19:46:40.637Z,101017.38
2023-05-05T19:49:07.825Z,101118.22
2023-05-05T19:51:37.556Z,100989.13
2023-05-05T19:54:05.019Z,101021.84
2023-05-05T19:56:32.116Z,101066.94
2023-05-05T19:59:18.896Z,101031.56
2023-05-05T20:01:59.569Z,101097.06
2023-05-05T20:04:26.621Z,101060.78
2023-05-05T20:07:13.849Z,101083.78
2023-05-05T20:10:14.871Z,101089.97
2023-05-05T20:12:55.460Z,101119.13
2023-05-05T20:15:22.654Z,101092.63
2023-05-05T20:17:50.022Z,101114.75
2023-05-05T20:20:36.920Z,101100.59
2023-05-05T20:23:37.882Z,101054.56
2023-05-05T20:26:18.615Z,101058.97
2023-05-05T20:28:46.065Z,101010.28
2023-05-05T20:31:32.918Z,101056.25
2023-05-05T20:34:33.880Z,101059.81
2023-05-05T20:37:35.067Z,101082.81
2023-05-05T20:40:35.854Z,101118.22
2023-05-05T20:43:24.654Z,101062.44
2023-05-05T20:45:51.775Z,100968.47
2023-05-05T20:48:18.973Z,101111.09
2023-05-05T20:50:45.969Z,101103.06
2023-05-05T20:53:15.771Z,101119.88
2023-05-05T20:56:02.909Z,101116.34
2023-05-05T20:58:43.599Z,101083.47
2023-05-05T21:01:11.452Z,101092.34
2023-05-05T21:03:38.472Z,101064.03
2023-05-05T21:06:25.965Z,101061.41
2023-05-05T21:09:27.894Z,101028.63
2023-05-05T21:12:08.471Z,101076.44
2023-05-05T21:14:35.953Z,101097.69
2023-05-05T21:17:02.945Z,101058.75
2023-05-05T21:19:49.881Z,101022.41
2023-05-05T21:22:50.900Z,101079.94
2023-05-05T21:25:31.456Z,101056.81
2023-05-05T21:28:18.889Z,101029.41
2023-05-05T21:31:19.609Z,101055.00
2023-05-05T21:34:06.894Z,101023.03
2023-05-05T21:37:07.908Z,101082.38
2023-05-05T21:40:09.152Z,101038.84
2023-05-05T21:43:09.954Z,100989.22
2023-05-05T21:45:41.051Z,101069.03
2023-05-05T21:48:08.024Z,101011.44
2023-05-05T21:50:36.654Z,101093.88
2023-05-05T21:53:03.556Z,101045.16
2023-05-05T21:55:30.625Z,100980.50
2023-05-05T21:57:57.534Z,101082.50
2023-05-05T22:00:24.798Z,101031.13
2023-05-05T22:02:51.868Z,101016.13
2023-05-05T22:05:38.948Z,101048.88
2023-05-05T22:08:19.814Z,101064.59
2023-05-05T22:10:47.662Z,101068.09
2023-05-05T22:13:14.755Z,101047.88
2023-05-05T22:15:46.673Z,101070.91
2023-05-05T22:18:15.438Z,101079.75
2023-05-05T22:21:02.972Z,101018.56
2023-05-05T22:23:43.573Z,101038.25
2023-05-05T22:26:10.692Z,101044.28
2023-05-05T22:28:38.617Z,100985.00
2023-05-05T22:31:25.963Z,101000.00
2023-05-05T22:34:27.940Z,101058.28
2023-05-05T22:37:09.792Z,101060.09
2023-05-05T22:39:49.937Z,101036.28
2023-05-05T22:42:51.008Z,101012.34
2023-05-05T22:45:31.495Z,101075.19
2023-05-05T22:47:58.519Z,101051.28
2023-05-05T22:50:25.790Z,100985.63
2023-05-05T22:52:52.696Z,101086.69
2023-05-05T22:55:39.967Z,101044.09
2023-05-05T22:58:21.147Z,101075.00
2023-05-05T23:00:48.104Z,101066.09
2023-05-05T23:03:15.526Z,101025.22
2023-05-05T23:06:03.006Z,101064.16
2023-05-05T23:09:03.977Z,101033.09
2023-05-05T23:12:04.991Z,101065.06
2023-05-05T23:14:45.828Z,101056.97
2023-05-05T23:17:32.980Z,101033.13
2023-05-05T23:20:33.965Z,101071.97
2023-05-05T23:23:26.684Z,101065.44
2023-05-05T23:25:53.577Z,101052.81
2023-05-05T23:28:20.574Z,101019.34
2023-05-05T23:30:47.705Z,101025.41
2023-05-05T23:33:14.807Z,101017.53
2023-05-05T23:35:43.526Z,100978.41
2023-05-05T23:38:10.602Z,100942.22
2023-05-05T23:40:37.605Z,100984.84
2023-05-05T23:43:04.553Z,100973.31
2023-05-05T23:45:31.537Z,101049.50
2023-05-05T23:47:58.515Z,101045.06
2023-05-05T23:50:26.025Z,101042.28
2023-05-05T23:52:52.928Z,101030.50
2023-05-05T23:55:20.290Z,100969.25
2023-05-05T23:57:47.298Z,101042.00
